createdAt,value
2023-02-18T00:02:42.606Z,8.13
2023-02-18T00:07:45.101Z,8.14
2023-02-18T00:12:46.924Z,8.12
2023-02-18T00:17:49.995Z,8.09
2023-02-18T00:22:51.699Z,8.00
2023-02-18T00:27:53.394Z,8.01
2023-02-18T00:32:56.475Z,7.99
2023-02-18T00:37:58.160Z,8.04
2023-02-18T00:43:00.073Z,8.09
2023-02-18T00:48:03.202Z,8.15
2023-02-18T00:53:04.924Z,8.20
2023-02-18T00:58:06.656Z,8.18
2023-02-18T01:03:09.737Z,8.15
2023-02-18T01:08:11.582Z,8.18
2023-02-18T01:13:13.408Z,8.11
2023-02-18T01:18:16.590Z,8.22
2023-02-18T01:23:18.508Z,8.28
2023-02-18T01:28:21.461Z,8.36
2023-02-18T01:33:24.510Z,8.42
2023-02-18T01:38:26.236Z,8.47
2023-02-18T01:43:28.158Z,8.49
2023-02-18T01:48:34.091Z,8.55
2023-02-18T01:53:39.763Z,8.53
2023-02-18T01:58:41.517Z,8.57
2023-02-18T02:03:44.606Z,8.57
2023-02-18T02:08:46.898Z,8.57
2023-02-18T02:14:07.526Z,8.57
2023-02-18T02:19:30.695Z,8.59
2023-02-18T02:24:53.775Z,8.54
2023-02-18T02:30:23.119Z,8.53
2023-02-18T02:35:26.380Z,8.56
2023-02-18T02:40:30.384Z,8.58
2023-02-18T02:45:38.713Z,8.61
2023-02-18T02:50:44.878Z,8.60
2023-02-18T02:55:46.587Z,8.64
2023-02-18T03:01:09.336Z,8.67
2023-02-18T03:06:21.683Z,8.66
2023-02-18T03:11:24.366Z,8.71
2023-02-18T03:16:28.137Z,8.74
2023-02-18T03:21:32.186Z,8.71
2023-02-18T03:26:37.482Z,8.66
2023-02-18T03:31:39.455Z,8.55
2023-02-18T03:36:42.722Z,8.53
2023-02-18T03:41:44.419Z,8.44
2023-02-18T03:46:46.125Z,8.48
2023-02-18T03:51:49.367Z,8.56
2023-02-18T03:56:51.122Z,8.62
2023-02-18T04:01:52.790Z,8.61
2023-02-18T04:06:55.860Z,8.63
2023-02-18T04:11:57.581Z,8.63
2023-02-18T04:16:59.355Z,8.66
2023-02-18T04:22:02.580Z,8.70
2023-02-18T04:27:04.368Z,8.75
2023-02-18T04:32:06.335Z,8.77
2023-02-18T04:37:09.546Z,8.83
2023-02-18T04:42:11.240Z,8.86
2023-02-18T04:47:12.992Z,8.90
2023-02-18T04:52:16.046Z,8.99
2023-02-18T04:57:17.760Z,8.97
2023-02-18T05:02:19.446Z,8.91
2023-02-18T05:07:22.484Z,8.81
2023-02-18T05:12:24.192Z,8.84
2023-02-18T05:17:26.014Z,8.81
2023-02-18T05:22:29.176Z,8.82
2023-02-18T05:27:30.974Z,8.76
2023-02-18T05:32:32.749Z,8.76
2023-02-18T05:37:35.834Z,8.67
2023-02-18T05:42:37.618Z,8.61
2023-02-18T05:47:39.453Z,8.60
2023-02-18T05:52:42.516Z,8.55
2023-02-18T05:57:44.224Z,8.47
2023-02-18T06:02:45.992Z,8.45
2023-02-18T06:07:49.046Z,8.33
2023-02-18T06:12:50.773Z,8.27
2023-02-18T06:17:52.452Z,8.33
2023-02-18T06:22:55.528Z,8.34
2023-02-18T06:27:57.331Z,8.38
2023-02-18T06:32:59.070Z,8.48
2023-02-18T06:38:02.199Z,8.54
2023-02-18T06:43:03.931Z,8.48
2023-02-18T06:48:05.673Z,8.59
2023-02-18T06:53:08.822Z,8.61
2023-02-18T06:58:10.674Z,8.63
2023-02-18T07:03:12.957Z,8.75
2023-02-18T07:08:16.130Z,8.79
2023-02-18T07:13:17.988Z,8.62
2023-02-18T07:18:19.755Z,8.67
2023-02-18T07:23:22.761Z,8.98
2023-02-18T07:28:24.450Z,9.19
2023-02-18T07:33:26.207Z,9.28
2023-02-18T07:38:29.511Z,9.17
2023-02-18T07:43:31.207Z,9.09
2023-02-18T07:48:32.904Z,9.17
2023-02-18T07:53:36.562Z,9.17
2023-02-18T07:58:38.310Z,9.18
2023-02-18T08:03:39.997Z,9.14
2023-02-18T08:08:43.021Z,9.06
2023-02-18T08:13:46.970Z,9.12
2023-02-18T08:18:49.610Z,9.07
2023-02-18T08:23:52.700Z,9.14
2023-02-18T08:28:54.430Z,9.08
2023-02-18T08:33:56.427Z,9.16
2023-02-18T08:38:59.477Z,9.11
2023-02-18T08:44:01.140Z,9.15
2023-02-18T08:49:03.782Z,9.10
2023-02-18T08:54:06.771Z,9.01
2023-02-18T08:59:08.563Z,9.06
2023-02-18T09:04:10.333Z,9.17
2023-02-18T09:09:13.428Z,9.34
2023-02-18T09:14:15.133Z,9.41
2023-02-18T09:19:16.853Z,9.50
2023-02-18T09:24:20.164Z,9.73
2023-02-18T09:29:21.995Z,9.95
2023-02-18T09:34:23.713Z,10.04
2023-02-18T09:39:26.872Z,10.19
2023-02-18T09:44:34.291Z,10.50
2023-02-18T09:49:37.634Z,10.76
2023-02-18T09:54:40.656Z,11.05
2023-02-18T09:59:42.489Z,11.21
2023-02-18T10:04:45.694Z,11.38
2023-02-18T10:09:48.786Z,11.62
2023-02-18T10:14:51.246Z,11.68
2023-02-18T10:19:53.786Z,11.84
2023-02-18T10:24:57.711Z,11.80
2023-02-18T10:30:25.624Z,11.99
2023-02-18T10:35:31.350Z,12.05
2023-02-18T10:40:37.502Z,12.10
2023-02-18T10:45:43.587Z,12.07
2023-02-18T10:50:45.472Z,12.01
2023-02-18T10:55:52.116Z,11.96
2023-02-18T11:00:53.941Z,11.85
2023-02-18T11:05:56.156Z,12.03
2023-02-18T11:10:59.244Z,12.11
2023-02-18T11:16:01.992Z,12.00
2023-02-18T11:21:05.176Z,11.97
2023-02-18T11:26:12.125Z,11.78
2023-02-18T11:31:19.990Z,11.76
2023-02-18T11:36:23.999Z,11.75
2023-02-18T11:41:32.343Z,11.92
2023-02-18T11:46:34.142Z,11.91
2023-02-18T11:51:38.802Z,11.83
2023-02-18T11:56:41.865Z,11.84
2023-02-18T12:01:45.466Z,11.95
2023-02-18T12:06:50.813Z,12.07
2023-02-18T12:11:55.141Z,12.13
2023-02-18T12:17:11.581Z,11.91
2023-02-18T12:22:16.204Z,11.87
2023-02-18T12:27:22.844Z,11.53
2023-02-18T12:32:30.671Z,11.71
2023-02-18T12:37:44.205Z,11.76
2023-02-18T12:42:52.738Z,11.83
2023-02-18T12:48:07.712Z,11.88
2023-02-18T12:53:28.885Z,11.89
2023-02-18T12:58:38.475Z,12.04
2023-02-18T13:03:58.670Z,12.00
2023-02-18T13:09:03.787Z,11.83
2023-02-18T13:14:10.805Z,11.68
2023-02-18T13:19:18.158Z,11.75
2023-02-18T13:24:25.772Z,11.66
2023-02-18T13:29:30.826Z,11.60
2023-02-18T13:34:34.263Z,11.64
2023-02-18T13:39:35.972Z,11.64
2023-02-18T13:44:57.688Z,11.64
2023-02-18T13:49:59.377Z,11.59
2023-02-18T13:55:01.108Z,11.65
2023-02-18T14:00:20.528Z,11.66
2023-02-18T14:05:22.412Z,11.68
2023-02-18T14:10:32.118Z,11.63
2023-02-18T14:15:56.396Z,11.69
2023-02-18T14:21:05.873Z,11.79
2023-02-18T14:26:08.416Z,11.76
2023-02-18T14:31:48.800Z,11.75
2023-02-18T14:36:54.989Z,11.70
2023-02-18T14:41:58.273Z,11.82
2023-02-18T14:47:14.389Z,11.71
2023-02-18T14:52:22.392Z,11.51
2023-02-18T14:57:28.154Z,11.46
2023-02-18T15:02:34.952Z,11.42
2023-02-18T15:07:36.658Z,11.56
2023-02-18T15:12:38.441Z,11.62
2023-02-18T15:17:44.714Z,11.62
2023-02-18T15:22:46.687Z,11.65
2023-02-18T15:27:51.418Z,11.63
2023-02-18T15:32:55.233Z,11.65
2023-02-18T15:37:58.172Z,11.61
2023-02-18T15:43:00.688Z,11.59
2023-02-18T15:48:04.529Z,11.59
2023-02-18T15:53:07.481Z,11.53
2023-02-18T15:58:12.286Z,11.51
2023-02-18T16:03:16.066Z,11.52
2023-02-18T16:08:23.988Z,11.45
2023-02-18T16:13:26.937Z,11.41
2023-02-18T16:18:31.480Z,11.37
2023-02-18T16:23:36.011Z,11.31
2023-02-18T16:28:41.430Z,11.28
2023-02-18T16:33:44.479Z,11.25
2023-02-18T16:38:46.275Z,11.17
2023-02-18T16:43:48.105Z,11.17
2023-02-18T16:48:52.217Z,11.20
2023-02-18T16:53:53.912Z,11.19
2023-02-18T16:58:55.626Z,11.25
2023-02-18T17:03:58.845Z,11.82
2023-02-18T17:09:00.556Z,11.60
2023-02-18T17:14:04.977Z,11.43
2023-02-18T17:19:08.175Z,11.24
2023-02-18T17:24:11.420Z,11.16
2023-02-18T17:29:13.786Z,11.15
2023-02-18T17:34:20.345Z,11.13
2023-02-18T17:39:22.174Z,11.04
2023-02-18T17:44:24.688Z,10.96
2023-02-18T17:49:27.745Z,10.98
2023-02-18T17:54:29.587Z,11.02
2023-02-18T17:59:31.359Z,11.01
2023-02-18T18:04:34.419Z,11.01
2023-02-18T18:09:36.167Z,11.00
2023-02-18T18:14:37.878Z,11.03
2023-02-18T18:19:41.162Z,11.03
2023-02-18T18:24:42.920Z,11.05
2023-02-18T18:29:44.609Z,11.05
2023-02-18T18:34:49.121Z,11.00
2023-02-18T18:39:51.061Z,10.84
2023-02-18T18:44:52.791Z,10.77
2023-02-18T18:49:55.904Z,10.67
2023-02-18T18:54:57.689Z,10.64
2023-02-18T18:59:59.584Z,10.64
2023-02-18T19:05:03.813Z,10.70
2023-02-18T19:10:06.172Z,10.64
2023-02-18T19:15:10.515Z,10.68
2023-02-18T19:20:14.335Z,10.68
2023-02-18T19:25:16.493Z,10.71
2023-02-18T19:30:25.213Z,10.69
2023-02-18T19:35:28.568Z,10.73
2023-02-18T19:40:30.663Z,10.70
2023-02-18T19:45:32.437Z,10.71
2023-02-18T19:50:35.554Z,10.58
2023-02-18T19:55:37.455Z,10.65
2023-02-18T20:00:40.471Z,10.63
2023-02-18T20:05:43.702Z,10.69
2023-02-18T20:10:45.475Z,10.65
2023-02-18T20:15:47.250Z,10.77
2023-02-18T20:20:50.331Z,10.77
2023-02-18T20:25:52.101Z,10.65
2023-02-18T20:31:03.744Z,10.60
2023-02-18T20:36:08.392Z,10.30
2023-02-18T20:41:11.807Z,10.30
2023-02-18T20:46:14.688Z,10.15
2023-02-18T20:51:18.782Z,10.02
2023-02-18T20:56:20.827Z,9.98
2023-02-18T21:01:22.640Z,9.89
2023-02-18T21:06:25.817Z,9.89
2023-02-18T21:11:27.724Z,9.91
2023-02-18T21:16:29.612Z,9.89
2023-02-18T21:21:32.819Z,9.89
2023-02-18T21:26:34.847Z,9.89
2023-02-18T21:31:37.466Z,9.96
2023-02-18T21:36:40.736Z,9.94
2023-02-18T21:41:42.581Z,9.93
2023-02-18T21:46:44.428Z,9.95
2023-02-18T21:51:57.660Z,9.93
2023-02-18T21:57:00.373Z,9.83
2023-02-18T22:02:02.477Z,9.80
2023-02-18T22:07:05.646Z,9.78
2023-02-18T22:12:07.526Z,9.77
2023-02-18T22:17:09.467Z,9.78
2023-02-18T22:22:12.715Z,9.80
2023-02-18T22:27:14.680Z,9.80
2023-02-18T22:32:16.657Z,9.76
2023-02-18T22:37:20.073Z,9.79
2023-02-18T22:42:21.922Z,9.74
2023-02-18T22:47:23.715Z,9.72
2023-02-18T22:52:26.803Z,9.70
2023-02-18T22:57:28.507Z,9.71
2023-02-18T23:02:30.272Z,9.65
2023-02-18T23:07:33.298Z,9.66
2023-02-18T23:12:35.052Z,9.57
2023-02-18T23:17:37.065Z,9.55
2023-02-18T23:22:41.918Z,9.59
2023-02-18T23:27:43.652Z,9.64
2023-02-18T23:32:45.373Z,9.69
2023-02-18T23:38:03.353Z,9.65
2023-02-18T23:43:05.015Z,9.69
2023-02-18T23:48:06.684Z,9.69
2023-02-18T23:53:09.682Z,9.65
2023-02-18T23:58:11.539Z,9.73
